Terminal Aerodrome Forecast
Issued by NWS

Home | Current Version | Previous Version | Text Only | Print | Product List | Glossary On
Versions: 1 2 3 4 5 6 7 8 9 10 11 12 13 14 15 16 17 18 19 20 21
000
FTUS43 KICT 291141 AAB
TAFHUT
TAF AMD
KHUT 291141Z 2912/3012 05016G24KT P6SM VCSH OVC025
      TEMPO 2912/2916 6SM -TSRA BKN015 OVC035CB
     FM291600 07017G25KT P6SM VCTS OVC025CB
     FM292100 09017G24KT 6SM -TSRA OVC012CB
     FM300400 14016KT 5SM -TSRA BR OVC008CB
     FM300900 24016G24KT P6SM SCT009 BKN016=

USA.gov is the U.S. government's official web portal to all federal, state and local government web resources and services.